Time;durP1;ratioP1;P1;durP2;ratioP2;P2;SDS_P1;SDS_P2;PMS_P1;PMS_P2;Temp;Humidity;BMP_temperature;BMP_pressure;BME280_temperature;BME280_humidity;BME280_pressure;Samples;Min_cycle;Max_cycle;Signal;HPM_P1;HPM_P2
2021/07/09 00:01:36;;;;;;;7.72;4.35;;;;;;;19.30;69.98;101485.09;1759130;80;21868;-59
2021/07/09 00:04:37;;;;;;;10.50;4.42;;;;;;;19.20;70.26;101490.98;1760748;80;21374;-59
2021/07/09 00:07:43;;;;;;;11.90;4.55;;;;;;;19.20;70.54;101484.59;1758709;81;21343;-58
2021/07/09 00:10:50;;;;;;;9.50;4.70;;;;;;;19.23;70.60;101485.02;1760232;79;21205;-59
2021/07/09 00:13:57;;;;;;;12.53;5.17;;;;;;;19.25;70.64;101487.06;1759154;81;21336;-59
2021/07/09 00:17:04;;;;;;;9.73;4.83;;;;;;;19.23;70.73;101480.84;1768173;79;21193;-59
2021/07/09 00:20:11;;;;;;;11.05;4.75;;;;;;;19.26;70.99;101485.16;1769813;81;21385;-59
2021/07/09 00:23:18;;;;;;;15.05;6.37;;;;;;;19.25;70.81;101487.59;1788596;80;21343;-60
2021/07/09 00:26:24;;;;;;;13.93;5.75;;;;;;;19.20;70.76;101489.59;1757063;81;21236;-59
2021/07/09 00:29:30;;;;;;;10.60;5.33;;;;;;;19.12;70.88;101489.76;1778903;80;21172;-58
2021/07/09 00:32:36;;;;;;;13.05;5.50;;;;;;;19.16;70.97;101485.52;1818301;78;21283;-59
2021/07/09 00:35:42;;;;;;;13.58;5.90;;;;;;;19.21;70.86;101485.77;1750492;81;21216;-60
2021/07/09 00:38:51;;;;;;;9.98;5.10;;;;;;;19.18;70.65;101486.19;1799748;79;21340;-60
2021/07/09 00:41:57;;;;;;;14.23;5.60;;;;;;;19.13;70.59;101483.16;1792087;79;21269;-60
2021/07/09 00:45:04;;;;;;;13.22;5.55;;;;;;;19.10;70.62;101485.48;1791629;80;21218;-60
2021/07/09 00:48:09;;;;;;;12.93;5.83;;;;;;;19.05;70.68;101486.10;1791885;80;21185;-58
2021/07/09 00:51:18;;;;;;;12.40;5.90;;;;;;;19.00;70.74;101478.91;1739366;81;21350;-59
2021/07/09 00:54:23;;;;;;;11.08;5.35;;;;;;;19.00;71.05;101480.30;1756954;81;21188;-59
2021/07/09 00:57:30;;;;;;;7.92;4.72;;;;;;;18.98;70.83;101475.48;1756916;81;21390;-59
2021/07/09 01:00:36;;;;;;;11.33;5.72;;;;;;;18.96;71.08;101474.81;1757110;81;21725;-59
2021/07/09 01:03:42;;;;;;;13.40;6.15;;;;;;;18.93;71.14;101476.61;1756774;81;21323;-59
2021/07/09 01:06:48;;;;;;;14.83;5.53;;;;;;;18.91;71.40;101472.34;1757061;81;21362;-59
2021/07/09 01:09:53;;;;;;;16.10;6.15;;;;;;;18.89;71.50;101480.00;1757020;81;21331;-59
2021/07/09 01:13:00;;;;;;;14.93;6.03;;;;;;;18.86;71.67;101472.95;1757107;81;21240;-59
2021/07/09 01:16:07;;;;;;;15.13;6.00;;;;;;;18.87;71.77;101473.78;1758067;81;21192;-58
2021/07/09 01:19:14;;;;;;;10.30;5.37;;;;;;;18.84;71.75;101472.29;1779148;80;21196;-58
2021/07/09 01:22:25;;;;;;;12.80;5.92;;;;;;;18.80;71.62;101472.38;1772124;80;21342;-60
2021/07/09 01:25:33;;;;;;;11.53;5.30;;;;;;;18.80;71.76;101472.91;1760448;81;21212;-59
2021/07/09 01:28:39;;;;;;;16.40;6.50;;;;;;;18.86;71.74;101470.70;1757313;81;21243;-59
2021/07/09 01:31:47;;;;;;;11.15;5.83;;;;;;;18.85;71.44;101471.22;1757135;81;21271;-59
2021/07/09 01:34:53;;;;;;;14.93;5.87;;;;;;;18.87;71.49;101469.11;1757038;81;21338;-59
2021/07/09 01:38:14;;;;;;;12.18;5.60;;;;;;;18.89;71.29;101473.06;1757276;81;21219;-59
2021/07/09 01:41:21;;;;;;;10.43;4.67;;;;;;;18.89;71.35;101469.77;1757514;81;21243;-58
2021/07/09 01:44:29;;;;;;;12.07;5.45;;;;;;;18.87;71.16;101465.46;1757217;81;21267;-60
2021/07/09 01:47:34;;;;;;;13.22;5.25;;;;;;;18.80;71.23;101472.38;1757281;81;21215;-59
2021/07/09 01:50:41;;;;;;;9.83;5.25;;;;;;;18.70;71.24;101463.55;1757185;81;21247;-60
2021/07/09 01:53:47;;;;;;;10.93;5.55;;;;;;;18.66;71.57;101460.84;1757393;81;21209;-59
2021/07/09 01:56:53;;;;;;;11.68;5.55;;;;;;;18.68;71.64;101457.89;1757129;81;21243;-60
2021/07/09 01:59:59;;;;;;;13.13;5.25;;;;;;;18.71;71.57;101458.88;1757129;81;21856;-59
2021/07/09 02:03:05;;;;;;;13.58;5.35;;;;;;;18.74;71.33;101470.39;1757241;81;21196;-59
2021/07/09 02:06:14;;;;;;;12.78;6.35;;;;;;;18.72;71.10;101463.34;1730369;81;21330;-59
2021/07/09 02:09:20;;;;;;;11.25;5.28;;;;;;;18.72;71.12;101460.57;1790343;79;21236;-59
2021/07/09 02:12:27;;;;;;;14.47;5.85;;;;;;;18.77;71.30;101459.44;1788307;80;21197;-58
2021/07/09 02:15:39;;;;;;;11.22;5.10;;;;;;;18.80;71.14;101457.13;1783080;79;21283;-58
2021/07/09 02:18:47;;;;;;;15.40;5.45;;;;;;;18.78;71.07;101461.14;1784525;77;21209;-59
2021/07/09 02:21:54;;;;;;;15.45;6.42;;;;;;;18.74;71.17;101462.07;1746300;81;21413;-59
2021/07/09 02:25:05;;;;;;;11.55;5.90;;;;;;;18.72;71.09;101461.95;1757561;81;21342;-59
2021/07/09 02:28:09;;;;;;;9.18;5.45;;;;;;;18.68;71.19;101464.27;1757279;81;21396;-59
2021/07/09 02:31:18;;;;;;;17.00;6.45;;;;;;;18.70;71.15;101471.88;1757245;81;21349;-59
2021/07/09 02:34:24;;;;;;;13.68;6.30;;;;;;;18.70;71.06;101467.71;1757360;81;21319;-58
2021/07/09 02:37:32;;;;;;;12.93;5.55;;;;;;;18.75;70.82;101474.91;1756695;81;21271;-58
2021/07/09 02:40:40;;;;;;;16.75;6.17;;;;;;;18.73;70.79;101471.47;1756977;81;21413;-60
2021/07/09 02:43:46;;;;;;;11.88;5.90;;;;;;;18.79;70.71;101474.81;1756522;81;21334;-59
2021/07/09 02:46:52;;;;;;;9.85;5.90;;;;;;;18.86;70.60;101484.58;1737435;81;21157;-59
2021/07/09 02:49:57;;;;;;;11.63;5.20;;;;;;;18.96;70.41;101481.75;1738119;81;21243;-61
2021/07/09 02:53:04;;;;;;;15.25;6.28;;;;;;;19.07;70.00;101484.51;1756887;81;21342;-60
2021/07/09 02:56:10;;;;;;;11.57;5.75;;;;;;;19.14;69.76;101482.61;1757086;81;21354;-56
2021/07/09 02:59:15;;;;;;;10.43;6.05;;;;;;;19.20;69.55;101481.27;1756711;81;21165;-58
2021/07/09 03:02:22;;;;;;;14.20;5.85;;;;;;;19.30;69.38;101480.92;1757432;81;21892;-57
2021/07/09 03:05:28;;;;;;;15.83;5.92;;;;;;;19.34;69.00;101476.13;1756845;81;21354;-56
2021/07/09 03:08:33;;;;;;;13.00;6.28;;;;;;;19.37;68.89;101475.41;1756894;81;21188;-58
2021/07/09 03:11:41;;;;;;;9.13;5.47;;;;;;;19.43;68.93;101476.83;1757165;81;21800;-58
2021/07/09 03:14:48;;;;;;;11.65;5.78;;;;;;;19.47;68.56;101470.33;1756926;80;21259;-58
2021/07/09 03:17:53;;;;;;;11.83;5.55;;;;;;;19.48;68.46;101472.03;1757037;81;21370;-57
2021/07/09 03:20:59;;;;;;;11.68;5.65;;;;;;;19.54;68.48;101469.80;1766596;78;21844;-58
2021/07/09 03:24:06;;;;;;;12.23;5.65;;;;;;;19.60;68.34;101464.84;1743420;81;21334;-57
2021/07/09 03:27:14;;;;;;;12.53;5.70;;;;;;;19.65;68.04;101467.30;1750533;82;21351;-57
2021/07/09 03:30:20;;;;;;;10.65;5.40;;;;;;;19.69;67.91;101469.13;1750806;82;21358;-57
2021/07/09 03:33:27;;;;;;;9.40;5.70;;;;;;;19.74;67.77;101469.37;1750632;81;21387;-58
2021/07/09 03:36:34;;;;;;;11.35;6.05;;;;;;;19.82;67.59;101470.57;1750496;81;21367;-57
2021/07/09 03:39:39;;;;;;;10.30;6.00;;;;;;;19.89;67.43;101470.03;1787981;80;21339;-58
2021/07/09 03:42:46;;;;;;;12.68;5.58;;;;;;;20.00;67.33;101474.45;1750516;82;21338;-59
2021/07/09 03:45:51;;;;;;;9.60;6.15;;;;;;;20.10;67.02;101481.00;1749731;82;21345;-57
2021/07/09 03:48:57;;;;;;;8.98;5.70;;;;;;;20.16;66.77;101469.06;1788523;80;21359;-57
2021/07/09 03:52:05;;;;;;;10.18;6.03;;;;;;;20.23;66.68;101468.55;1751034;81;21351;-59
2021/07/09 03:55:14;;;;;;;9.65;5.60;;;;;;;20.31;66.59;101466.39;1750613;81;21366;-58
2021/07/09 03:58:21;;;;;;;12.05;6.10;;;;;;;20.42;66.71;101471.88;1760474;79;21398;-58
2021/07/09 04:01:27;;;;;;;10.35;5.85;;;;;;;20.49;66.63;101464.37;1731270;82;21366;-57
2021/07/09 04:04:35;;;;;;;16.90;6.67;;;;;;;20.57;66.51;101465.55;1750911;82;21217;-60
2021/07/09 04:07:40;;;;;;;10.10;6.00;;;;;;;20.65;66.30;101463.41;1798867;80;21943;-57
2021/07/09 04:10:47;;;;;;;10.50;6.20;;;;;;;20.75;66.46;101457.41;1756228;81;21212;-59
2021/07/09 04:13:55;;;;;;;8.58;5.70;;;;;;;20.88;66.69;101458.80;1728860;83;21208;-59
2021/07/09 04:17:01;;;;;;;9.78;5.60;;;;;;;21.01;66.57;101463.51;1729887;83;21176;-57
2021/07/09 04:20:07;;;;;;;8.10;5.22;;;;;;;21.10;66.07;101460.80;1729826;81;21282;-58
2021/07/09 04:23:14;;;;;;;12.18;5.55;;;;;;;21.21;66.15;101455.95;1731072;82;21933;-57
2021/07/09 04:26:18;;;;;;;10.08;5.85;;;;;;;21.36;66.14;101454.60;1731039;82;21212;-58
2021/07/09 04:29:25;;;;;;;10.85;6.20;;;;;;;21.50;65.99;101453.47;1730535;82;21284;-61
2021/07/09 04:32:30;;;;;;;11.05;6.47;;;;;;;21.65;65.66;101447.09;1730201;82;21177;-58
2021/07/09 04:35:38;;;;;;;10.55;5.37;;;;;;;21.77;64.89;101450.90;1729690;83;21208;-58
2021/07/09 04:38:43;;;;;;;11.00;5.92;;;;;;;21.89;64.82;101451.05;1730037;80;21216;-58
2021/07/09 04:41:50;;;;;;;14.28;6.08;;;;;;;22.00;65.02;101444.23;1707022;83;21738;-60
2021/07/09 04:44:57;;;;;;;9.93;5.90;;;;;;;22.11;65.03;101442.12;1723050;82;21807;-58
2021/07/09 04:48:07;;;;;;;9.93;6.05;;;;;;;22.25;64.56;101444.82;1706355;83;21263;-59
2021/07/09 04:51:14;;;;;;;12.78;5.83;;;;;;;22.38;63.91;101441.90;1792756;78;21924;-58
2021/07/09 04:54:20;;;;;;;10.20;5.58;;;;;;;22.50;63.69;101441.49;1736785;82;21185;-58
2021/07/09 04:57:29;;;;;;;9.28;6.08;;;;;;;22.65;63.23;101446.20;1750368;82;21353;-60
2021/07/09 05:00:35;;;;;;;16.37;6.08;;;;;;;22.78;63.08;101446.09;1750532;82;21409;-59
2021/07/09 05:03:44;;;;;;;12.63;6.17;;;;;;;22.92;62.59;101444.86;1750772;82;21377;-61
2021/07/09 05:06:55;;;;;;;10.03;5.62;;;;;;;23.07;61.18;101446.20;1751034;82;21262;-58
2021/07/09 05:10:02;;;;;;;8.83;6.03;;;;;;;23.21;60.61;101443.56;1741244;82;21743;-58
2021/07/09 05:13:11;;;;;;;10.20;5.95;;;;;;;23.37;59.82;101452.75;1745766;82;21720;-58
2021/07/09 05:16:19;;;;;;;9.38;6.08;;;;;;;23.51;59.52;101446.47;1750349;82;21469;-58
2021/07/09 05:19:30;;;;;;;;;;;;;;;23.63;59.49;101440.39;1752256;82;21365;-58
2021/07/09 05:22:37;;;;;;;10.80;5.97;;;;;;;23.79;58.67;101440.27;1748810;80;20552;-57
2021/07/09 05:25:43;;;;;;;14.15;6.28;;;;;;;23.90;58.66;101443.13;1708083;82;21282;-57
2021/07/09 05:28:48;;;;;;;14.28;6.80;;;;;;;24.03;58.71;101450.50;1700611;83;21176;-59
2021/07/09 05:31:56;;;;;;;10.05;6.35;;;;;;;24.14;58.39;101453.88;1711261;83;21211;-56
2021/07/09 05:35:03;;;;;;;15.30;7.90;;;;;;;24.25;57.62;101444.13;1699398;83;21199;-58
2021/07/09 05:38:08;;;;;;;10.35;6.35;;;;;;;24.38;57.43;101449.52;1704487;84;21894;-57
2021/07/09 05:41:20;;;;;;;11.12;5.92;;;;;;;24.47;56.23;101452.27;1766914;79;21216;-57
2021/07/09 05:44:29;;;;;;;11.85;5.78;;;;;;;24.57;56.05;101443.27;1771041;81;21228;-57
2021/07/09 05:47:38;;;;;;;11.45;6.10;;;;;;;24.64;55.90;101442.05;1772201;80;21732;-57
2021/07/09 05:50:48;;;;;;;19.70;6.12;;;;;;;24.73;56.40;101442.05;1783535;80;21846;-58
2021/07/09 05:53:54;;;;;;;15.53;5.78;;;;;;;24.83;56.24;101436.67;1774262;79;21347;-57
2021/07/09 05:57:01;;;;;;;12.80;6.40;;;;;;;24.93;56.23;101443.07;1800139;79;21253;-57
2021/07/09 06:00:11;;;;;;;9.63;6.42;;;;;;;25.03;56.48;101439.12;1768513;80;21680;-56
2021/07/09 06:03:17;;;;;;;11.95;5.75;;;;;;;25.13;56.21;101435.69;1789632;79;21326;-57
2021/07/09 06:06:28;;;;;;;15.90;5.55;;;;;;;25.26;55.87;101434.03;1791568;79;21854;-56
2021/07/09 06:09:34;;;;;;;11.90;5.72;;;;;;;25.35;56.25;101429.77;1772765;80;21348;-58
2021/07/09 06:12:41;;;;;;;11.78;5.92;;;;;;;25.43;55.89;101427.45;1759699;81;21363;-56
2021/07/09 06:16:12;;;;;;;11.05;5.55;;;;;;;25.53;55.72;101426.23;1700151;83;21305;-55
2021/07/09 06:19:20;;;;;;;10.05;5.92;;;;;;;25.62;55.84;101428.11;1734976;81;21286;-56
2021/07/09 06:22:29;;;;;;;11.83;6.60;;;;;;;25.71;55.28;101427.47;1731871;78;21842;-57
2021/07/09 06:25:39;;;;;;;9.48;5.33;;;;;;;25.81;54.85;101426.83;1684243;84;21252;-56
2021/07/09 06:28:45;;;;;;;8.60;6.03;;;;;;;25.88;53.28;101425.56;1683814;85;21407;-57
2021/07/09 06:31:55;;;;;;;11.85;5.62;;;;;;;25.95;52.85;101424.00;1707747;84;21514;-56
2021/07/09 06:35:04;;;;;;;9.95;5.10;;;;;;;26.02;52.06;101422.77;1705001;83;21271;-57
2021/07/09 06:38:12;;;;;;;10.03;5.80;;;;;;;26.10;52.32;101424.34;1695973;84;21260;-56
2021/07/09 06:41:20;;;;;;;12.33;5.92;;;;;;;26.20;52.29;101424.51;1711792;84;21402;-57
2021/07/09 06:44:31;;;;;;;11.75;5.78;;;;;;;26.27;52.21;101419.02;1712379;84;21339;-57
2021/07/09 06:47:43;;;;;;;8.28;5.05;;;;;;;26.39;52.28;101418.95;1711941;84;21410;-57
2021/07/09 06:50:51;;;;;;;11.68;5.95;;;;;;;26.50;51.90;101413.80;1712399;84;21457;-56
2021/07/09 06:53:58;;;;;;;10.70;4.97;;;;;;;26.60;51.09;101413.13;1711893;84;21379;-56
2021/07/09 06:57:05;;;;;;;9.08;5.17;;;;;;;26.70;50.50;101411.38;1723250;83;21745;-57
2021/07/09 07:00:15;;;;;;;10.95;5.20;;;;;;;26.79;49.91;101414.05;1718149;83;21804;-57
2021/07/09 07:03:23;;;;;;;10.23;5.10;;;;;;;26.86;49.09;101413.30;1705860;83;21196;-57
2021/07/09 07:06:30;;;;;;;10.53;5.47;;;;;;;26.94;47.87;101412.86;1703217;83;21200;-57
2021/07/09 14:09:11;;;;;;;5.92;3.12;;;;;;;31.34;34.48;101122.19;1819034;79;28194;-58
2021/07/09 14:12:17;;;;;;;7.72;3.50;;;;;;;31.33;34.83;101123.34;1817137;78;21204;-57
2021/07/09 14:15:28;;;;;;;7.00;3.52;;;;;;;31.37;34.83;101120.17;1816460;79;21353;-56
2021/07/09 14:18:33;;;;;;;6.40;3.70;;;;;;;31.41;34.51;101121.30;1816384;79;21204;-56
2021/07/09 14:21:42;;;;;;;11.50;3.33;;;;;;;31.40;34.68;101114.77;1815968;77;21748;-57
2021/07/09 14:24:48;;;;;;;5.67;3.02;;;;;;;31.40;33.96;101116.75;1815037;78;21216;-57
2021/07/09 14:27:57;;;;;;;8.28;3.65;;;;;;;31.34;34.03;101109.45;1812810;78;21845;-57
2021/07/09 14:31:02;;;;;;;7.05;3.55;;;;;;;31.34;34.56;101112.28;1813775;79;21342;-57
2021/07/09 14:34:09;;;;;;;6.60;3.02;;;;;;;31.37;34.28;101106.88;1813640;79;21850;-57
2021/07/09 14:37:16;;;;;;;7.42;3.17;;;;;;;31.41;34.31;101096.64;1813574;78;21212;-57
2021/07/09 14:40:23;;;;;;;5.50;3.37;;;;;;;31.42;34.05;101093.25;1813915;79;21360;-58
2021/07/09 14:43:31;;;;;;;8.83;3.37;;;;;;;31.38;33.27;101094.41;1813930;78;21208;-56
2021/07/09 14:46:36;;;;;;;5.15;3.42;;;;;;;31.30;33.20;101097.86;1813875;77;21204;-56
2021/07/09 14:49:43;;;;;;;8.80;3.05;;;;;;;31.29;33.09;101093.88;1813515;79;21236;-57
2021/07/09 14:52:51;;;;;;;8.33;3.30;;;;;;;31.25;34.09;101095.63;1813413;77;21409;-57
2021/07/09 14:55:57;;;;;;;5.05;3.02;;;;;;;31.31;33.11;101084.01;1813470;79;21188;-56
2021/07/09 14:59:03;;;;;;;9.38;3.60;;;;;;;31.36;33.16;101081.70;1813899;79;21256;-57
2021/07/09 15:02:10;;;;;;;6.30;3.02;;;;;;;31.62;33.61;101082.58;1813430;79;21381;-58
2021/07/09 15:05:18;;;;;;;6.03;3.40;;;;;;;31.94;32.81;101080.02;1794793;78;21390;-58
2021/07/09 15:08:25;;;;;;;6.95;3.65;;;;;;;32.05;32.73;101072.82;1800184;79;21232;-57
2021/07/09 15:11:30;;;;;;;8.95;3.33;;;;;;;32.11;32.70;101073.88;1798464;79;21330;-56
2021/07/09 15:14:39;;;;;;;4.70;3.20;;;;;;;32.22;33.07;101072.61;1772794;80;21223;-59
2021/07/09 15:17:45;;;;;;;6.92;3.20;;;;;;;32.66;33.06;101071.76;1733966;82;21288;-58
2021/07/09 15:20:52;;;;;;;4.87;2.98;;;;;;;32.86;32.66;101071.45;1809510;79;21310;-58
2021/07/09 15:23:56;;;;;;;6.45;3.58;;;;;;;33.04;32.29;101066.95;1791473;79;21792;-58
2021/07/09 15:27:03;;;;;;;11.85;3.45;;;;;;;33.00;31.72;101070.98;1777488;80;21340;-57
2021/07/09 15:30:14;;;;;;;10.72;3.80;;;;;;;32.82;32.22;101066.70;1779452;80;21334;-58
2021/07/09 15:33:23;;;;;;;16.12;3.98;;;;;;;32.70;32.79;101062.89;1815538;79;21878;-57
2021/07/09 15:36:30;;;;;;;6.60;3.25;;;;;;;32.61;33.21;101061.91;1815724;79;21825;-57
2021/07/09 15:39:38;;;;;;;13.25;3.72;;;;;;;32.53;33.05;101065.98;1815569;77;21685;-56
2021/07/09 15:42:42;;;;;;;7.45;3.70;;;;;;;32.43;33.54;101068.38;1815391;79;21259;-58
2021/07/09 15:45:49;;;;;;;9.18;3.40;;;;;;;32.30;32.69;101059.75;1815045;79;21319;-57
2021/07/09 15:48:55;;;;;;;10.93;3.58;;;;;;;32.19;33.15;101065.28;1792302;79;21747;-57
2021/07/09 15:52:01;;;;;;;7.72;3.12;;;;;;;32.42;32.58;101070.95;1814019;79;21208;-57
2021/07/09 15:55:11;;;;;;;5.22;3.00;;;;;;;32.91;32.07;101068.58;1814575;79;21373;-57
2021/07/09 15:58:17;;;;;;;5.92;2.92;;;;;;;33.17;31.47;101069.84;1814075;79;21204;-57
2021/07/09 16:01:24;;;;;;;7.50;3.47;;;;;;;33.64;31.03;101067.92;1783345;80;21322;-57
2021/07/09 16:04:29;;;;;;;7.20;2.87;;;;;;;34.07;30.90;101073.66;1782445;80;21188;-58
2021/07/09 16:07:34;;;;;;;8.98;3.00;;;;;;;34.34;30.83;101077.92;1778756;79;21212;-57
2021/07/09 16:10:39;;;;;;;7.95;3.27;;;;;;;34.63;30.62;101081.31;1790689;78;21763;-58
2021/07/09 16:13:43;;;;;;;5.80;3.47;;;;;;;34.49;30.37;101077.64;1803861;79;21204;-57
2021/07/09 16:16:49;;;;;;;7.97;3.62;;;;;;;34.29;31.17;101075.18;1769916;79;21185;-55
2021/07/09 16:19:55;;;;;;;4.70;3.65;;;;;;;34.15;30.52;101071.50;1768730;81;21181;-58
2021/07/09 16:23:03;;;;;;;10.65;3.72;;;;;;;34.03;31.02;101076.88;1772095;81;21422;-57
2021/07/09 16:26:10;;;;;;;6.22;3.45;;;;;;;33.66;31.87;101079.83;1739098;81;21236;-58
2021/07/09 16:29:17;;;;;;;9.20;3.12;;;;;;;33.25;32.48;101077.66;1781895;79;21681;-57
2021/07/09 16:32:23;;;;;;;8.40;3.27;;;;;;;32.88;33.05;101070.61;1794209;79;21696;-59
2021/07/09 16:35:29;;;;;;;6.28;3.25;;;;;;;32.54;33.61;101064.25;1803555;79;21319;-57
2021/07/09 16:38:36;;;;;;;8.30;3.37;;;;;;;32.18;34.05;101067.26;1787383;79;21228;-55
2021/07/09 16:41:41;;;;;;;8.73;3.75;;;;;;;31.86;34.96;101068.48;1803544;78;21248;-56
2021/07/09 16:44:47;;;;;;;7.25;3.42;;;;;;;31.57;35.70;101062.80;1803225;79;21189;-57
2021/07/09 16:47:55;;;;;;;4.35;3.10;;;;;;;31.28;36.12;101059.09;1756653;80;21363;-56
2021/07/09 16:51:01;;;;;;;8.83;3.92;;;;;;;31.03;36.98;101051.38;1767040;81;21255;-55
2021/07/09 16:54:06;;;;;;;9.08;3.65;;;;;;;30.78;37.19;101054.41;1773726;79;21973;-55
2021/07/09 16:57:16;;;;;;;20.52;4.60;;;;;;;30.51;38.03;101051.41;1763403;79;21354;-56
2021/07/09 17:00:22;;;;;;;11.48;4.80;;;;;;;30.29;38.95;101055.20;1772087;80;21181;-56
2021/07/09 17:03:28;;;;;;;27.37;4.70;;;;;;;30.08;39.32;101052.14;1797912;80;21218;-57
2021/07/09 17:06:34;;;;;;;7.22;3.50;;;;;;;29.86;39.65;101053.06;1796429;79;21291;-57
2021/07/09 17:09:42;;;;;;;11.28;4.33;;;;;;;29.63;39.98;101049.98;1798042;80;21671;-56
2021/07/09 17:12:48;;;;;;;10.05;4.85;;;;;;;29.46;40.25;101048.04;1794042;80;21559;-56
2021/07/09 17:15:53;;;;;;;12.88;4.40;;;;;;;29.12;40.84;101047.77;1781273;80;21666;-56
2021/07/09 17:19:00;;;;;;;11.85;5.30;;;;;;;29.12;40.84;101047.77;1772681;81;21173;-57
2021/07/09 17:22:06;;;;;;;13.88;4.72;;;;;;;28.96;41.41;101046.04;1773047;81;21335;-56
2021/07/09 17:25:15;;;;;;;17.50;5.12;;;;;;;28.81;41.24;101046.86;1773266;81;21208;-57
2021/07/09 17:28:21;;;;;;;20.17;10.93;;;;;;;28.67;42.48;101047.70;1752260;81;21827;-56
2021/07/09 17:31:27;;;;;;;11.57;5.78;;;;;;;28.53;43.52;101043.15;1773528;81;21216;-57
2021/07/09 17:34:32;;;;;;;18.57;9.70;;;;;;;28.37;44.58;101040.55;1772982;81;21342;-57
2021/07/09 17:37:38;;;;;;;26.90;10.30;;;;;;;28.19;45.59;101045.27;1747405;81;21227;-57
2021/07/09 17:40:44;;;;;;;21.95;10.05;;;;;;;27.99;46.28;101046.01;1772879;81;21204;-57
2021/07/09 17:43:51;;;;;;;23.90;9.15;;;;;;;27.77;46.90;101047.56;1773194;81;21180;-57
2021/07/09 17:46:58;;;;;;;23.92;9.60;;;;;;;27.56;47.66;101044.88;1770224;79;21247;-58
2021/07/09 17:50:05;;;;;;;21.45;7.75;;;;;;;27.38;48.03;101053.22;1732167;82;21169;-58
2021/07/09 17:53:11;;;;;;;28.85;7.65;;;;;;;27.23;48.78;101050.24;1744466;82;21232;-58
2021/07/09 17:56:17;;;;;;;22.73;7.78;;;;;;;27.07;48.59;101047.01;1729471;81;21197;-57
2021/07/09 17:59:22;;;;;;;15.13;5.50;;;;;;;26.95;49.16;101048.31;1768545;79;21339;-58
2021/07/09 18:02:29;;;;;;;18.02;5.33;;;;;;;26.80;50.02;101051.81;1786908;79;21812;-58
2021/07/09 18:05:35;;;;;;;11.83;5.70;;;;;;;26.65;50.52;101044.66;1800847;79;21339;-58
2021/07/09 18:08:40;;;;;;;11.43;5.55;;;;;;;26.49;50.99;101049.78;1796373;79;21823;-57
2021/07/09 18:11:46;;;;;;;15.08;5.92;;;;;;;26.32;51.46;101048.45;1769434;79;21308;-57
2021/07/09 18:14:53;;;;;;;17.23;7.00;;;;;;;26.18;51.87;101047.70;1802897;79;21757;-57
2021/07/09 18:18:01;;;;;;;35.55;19.35;;;;;;;26.05;52.23;101050.94;1801864;79;21418;-58
2021/07/09 18:21:06;;;;;;;23.18;11.55;;;;;;;25.97;51.77;101050.78;1789878;79;21722;-58
2021/07/09 18:24:11;;;;;;;26.95;11.73;;;;;;;25.88;52.66;101052.34;1795745;79;21330;-58
2021/07/09 18:27:17;;;;;;;26.80;11.73;;;;;;;25.79;53.08;101054.45;1785446;79;21350;-58
2021/07/09 18:30:22;;;;;;;19.10;9.60;;;;;;;25.68;53.05;101056.83;1760207;80;21188;-57
2021/07/09 18:33:29;;;;;;;26.00;8.65;;;;;;;25.58;53.42;101051.91;1752603;81;21227;-57
2021/07/09 18:36:35;;;;;;;20.77;8.05;;;;;;;25.47;53.74;101060.42;1776553;79;21217;-58
2021/07/09 18:39:46;;;;;;;17.02;8.70;;;;;;;25.36;54.20;101052.42;1744083;82;21188;-58
2021/07/09 18:42:52;;;;;;;17.02;8.80;;;;;;;25.24;54.66;101053.05;1775545;81;21852;-57
2021/07/09 18:45:58;;;;;;;28.70;14.23;;;;;;;25.08;55.45;101040.70;1741410;82;21754;-57
2021/07/09 18:49:05;;;;;;;27.15;13.22;;;;;;;24.94;55.75;101045.52;1733095;83;21212;-57
2021/07/09 18:52:12;;;;;;;27.02;14.58;;;;;;;24.80;56.17;101044.98;1764706;81;21211;-58
2021/07/09 18:55:17;;;;;;;28.00;16.12;;;;;;;24.72;57.17;101046.80;1734635;82;21208;-58
2021/07/09 18:58:23;;;;;;;42.70;22.25;;;;;;;24.63;57.43;101044.09;1780716;80;21207;-57
2021/07/09 19:01:28;;;;;;;68.25;36.35;;;;;;;24.54;57.95;101048.41;1778245;80;21702;-57
2021/07/09 19:04:34;;;;;;;64.85;34.48;;;;;;;24.45;58.15;101047.09;1779153;80;21168;-57
2021/07/09 19:07:42;;;;;;;63.48;34.60;;;;;;;24.37;58.41;101049.45;1778643;80;21393;-57
2021/07/09 19:10:48;;;;;;;69.80;34.23;;;;;;;24.28;59.02;101046.73;1779587;79;21848;-57
2021/07/09 19:13:53;;;;;;;77.72;37.03;;;;;;;24.18;59.68;101047.37;1778616;79;21181;-57
2021/07/09 19:17:03;;;;;;;149.85;73.85;;;;;;;24.08;60.22;101041.59;1770312;81;21181;-57
2021/07/09 19:20:10;;;;;;;207.57;92.55;;;;;;;24.02;60.35;101045.92;1762718;81;21346;-58
2021/07/09 19:23:19;;;;;;;227.80;97.47;;;;;;;23.95;60.69;101040.44;1779022;79;21343;-58
2021/07/09 19:26:23;;;;;;;234.12;102.27;;;;;;;23.87;60.75;101039.95;1779606;79;21346;-57
2021/07/09 19:29:29;;;;;;;226.00;95.85;;;;;;;23.78;61.37;101032.52;1806214;79;21204;-58
2021/07/09 19:32:34;;;;;;;217.53;91.75;;;;;;;23.67;61.96;101034.79;1806267;79;21354;-58
2021/07/09 19:35:40;;;;;;;204.35;87.12;;;;;;;23.57;62.38;101034.02;1805188;79;21375;-58
2021/07/09 19:38:46;;;;;;;196.53;80.10;;;;;;;23.48;62.77;101032.66;1793093;79;21196;-58
2021/07/09 19:41:50;;;;;;;151.95;65.70;;;;;;;23.41;63.24;101035.28;1787623;79;21297;-58
2021/07/09 19:44:59;;;;;;;105.55;48.45;;;;;;;23.36;63.49;101031.83;1803208;79;21177;-58
2021/07/09 19:48:05;;;;;;;100.30;47.53;;;;;;;23.33;63.27;101032.86;1807733;79;21180;-58
2021/07/09 19:51:12;;;;;;;121.67;54.45;;;;;;;23.29;63.58;101022.70;1783404;80;21193;-58
2021/07/09 19:54:18;;;;;;;76.53;36.93;;;;;;;23.24;63.84;101021.72;1787091;80;21178;-58
2021/07/09 19:57:27;;;;;;;61.28;29.82;;;;;;;23.16;64.04;101020.68;1792693;79;21335;-58
2021/07/09 20:00:32;;;;;;;61.83;29.45;;;;;;;23.09;64.31;101026.38;1755751;79;21283;-58
2021/07/09 20:03:42;;;;;;;55.12;24.65;;;;;;;23.00;64.68;101025.59;1774040;81;21721;-58
2021/07/09 20:06:47;;;;;;;39.05;16.05;;;;;;;22.90;65.08;101026.72;1785268;79;21927;-57
2021/07/09 20:09:55;;;;;;;32.55;16.02;;;;;;;22.84;65.26;101027.69;1750879;81;21201;-58
2021/07/09 20:13:02;;;;;;;35.00;16.12;;;;;;;22.82;65.14;101029.32;1745884;82;21916;-58
2021/07/09 20:16:07;;;;;;;30.88;12.75;;;;;;;22.78;65.47;101037.02;1778884;80;21322;-58
2021/07/09 20:19:15;;;;;;;24.77;12.88;;;;;;;22.72;65.59;101031.01;1788089;79;21232;-59
2021/07/09 20:22:21;;;;;;;26.20;12.23;;;;;;;22.66;65.62;101024.99;1771604;81;21736;-58
2021/07/09 20:25:28;;;;;;;25.92;12.80;;;;;;;22.62;65.91;101026.55;1733712;80;21370;-58
2021/07/09 20:28:35;;;;;;;23.83;11.38;;;;;;;22.54;66.30;101021.30;1786870;78;21363;-58
2021/07/09 20:31:41;;;;;;;22.80;11.15;;;;;;;22.47;66.59;101028.91;1796850;79;21327;-58
2021/07/09 20:34:47;;;;;;;22.73;11.75;;;;;;;22.40;66.95;101032.33;1806423;79;21355;-58
2021/07/09 20:37:56;;;;;;;19.30;10.15;;;;;;;22.35;67.32;101024.67;1805987;79;21362;-57
2021/07/09 20:41:02;;;;;;;18.65;10.10;;;;;;;22.27;67.52;101024.14;1805774;79;21331;-57
2021/07/09 20:44:09;;;;;;;19.77;9.30;;;;;;;22.21;67.72;101026.78;1805751;79;21347;-56
2021/07/09 20:47:17;;;;;;;19.12;8.90;;;;;;;22.18;67.89;101028.66;1800228;79;21753;-57
2021/07/09 20:50:28;;;;;;;14.05;8.18;;;;;;;22.18;67.84;101030.05;1786259;79;21370;-58
2021/07/09 20:53:34;;;;;;;14.45;8.43;;;;;;;22.18;67.89;101025.86;1795624;79;21689;-57
2021/07/09 20:56:39;;;;;;;17.85;8.23;;;;;;;22.17;67.93;101025.56;1780137;79;21165;-56
2021/07/09 20:59:45;;;;;;;14.85;8.50;;;;;;;22.18;67.86;101027.26;1781970;79;21922;-57
2021/07/09 21:02:50;;;;;;;22.50;8.93;;;;;;;22.19;67.80;101030.37;1761263;79;21208;-56
2021/07/09 21:05:57;;;;;;;19.98;10.50;;;;;;;22.18;67.75;101024.47;1755182;80;21188;-57
2021/07/09 21:09:03;;;;;;;20.68;10.32;;;;;;;22.13;67.99;101024.35;1736293;82;21358;-57
2021/07/09 21:12:09;;;;;;;18.17;7.92;;;;;;;22.07;68.35;101028.06;1796822;79;21342;-58
2021/07/09 21:15:17;;;;;;;16.93;7.70;;;;;;;22.01;68.29;101027.61;1801480;79;21418;-57
2021/07/09 21:18:23;;;;;;;14.65;7.47;;;;;;;21.94;68.27;101024.08;1790469;80;21386;-58